Time;durP1;ratioP1;P1;durP2;ratioP2;P2;SDS_P1;SDS_P2;PMS_P1;PMS_P2;Temp;Humidity;BMP_temperature;BMP_pressure;BME280_temperature;BME280_humidity;BME280_pressure;Samples;Min_cycle;Max_cycle;Signal;HPM_P1;HPM_P2
2022/10/07 04:16:08;;;;;;;34.33;21.50;;;;;;;8.77;100.00;101658.13;5570012;31;198414;-90
2022/10/07 04:19:12;;;;;;;34.80;20.45;;;;;;;8.71;100.00;101660.91;5551252;32;33226;-90
2022/10/07 04:22:16;;;;;;;32.15;19.20;;;;;;;8.71;100.00;101664.41;5545136;32;34274;-90
2022/10/07 04:25:34;;;;;;;29.02;18.55;;;;;;;8.72;100.00;101660.87;5592199;26;34840;-88
2022/10/07 04:28:37;;;;;;;26.77;17.85;;;;;;;8.73;100.00;101651.16;5544189;32;34643;-89
2022/10/07 04:31:40;;;;;;;30.80;18.40;;;;;;;8.76;100.00;101653.75;5545526;32;35084;-88
2022/10/07 04:34:43;;;;;;;24.65;18.08;;;;;;;8.80;100.00;101649.25;5551894;32;32600;-88
2022/10/07 04:37:50;;;;;;;26.15;16.50;;;;;;;8.80;100.00;101652.75;5592167;26;36691;-90
2022/10/07 04:40:53;;;;;;;23.73;16.23;;;;;;;8.81;100.00;101651.88;5610418;26;34891;-89
2022/10/07 04:43:56;;;;;;;25.20;16.60;;;;;;;8.86;100.00;101655.25;5543983;32;33805;-89
2022/10/07 04:46:59;;;;;;;27.40;16.35;;;;;;;8.82;100.00;101664.19;5544191;32;34300;-89
2022/10/07 04:50:04;;;;;;;25.08;15.45;;;;;;;8.78;100.00;101673.09;5576800;26;33788;-89
2022/10/07 04:53:09;;;;;;;23.98;17.05;;;;;;;8.74;100.00;101674.06;5641361;26;33868;-88
2022/10/07 04:56:12;;;;;;;26.27;17.40;;;;;;;8.71;100.00;101676.78;5623035;26;34075;-88
2022/10/07 04:59:16;;;;;;;24.40;17.25;;;;;;;8.73;100.00;101667.03;5580308;26;34023;-89
2022/10/07 05:02:18;;;;;;;26.37;16.30;;;;;;;8.80;100.00;101667.78;5573229;26;34529;-89
2022/10/07 05:05:22;;;;;;;28.87;16.85;;;;;;;8.79;100.00;101666.03;5590060;26;34054;-89
2022/10/07 06:21:33;;;;;;;16.40;13.10;;;;;;;10.28;100.00;101699.53;4067229;30;20093;-89
2022/10/07 06:35:55;;;;;;;20.33;14.40;;;;;;;10.70;100.00;101695.72;2520472;26;20104;-89
2022/10/07 06:39:04;;;;;;;23.35;14.43;;;;;;;10.83;100.00;101698.03;5537507;32;33375;-89
2022/10/07 06:42:08;;;;;;;20.62;14.45;;;;;;;10.94;100.00;101695.91;5531216;32;32911;-89
2022/10/07 06:45:12;;;;;;;21.95;14.75;;;;;;;11.11;100.00;101695.41;5537000;26;34228;-89
2022/10/07 06:48:15;;;;;;;21.98;15.10;;;;;;;11.26;100.00;101698.53;5529753;32;32021;-89
2022/10/07 06:51:19;;;;;;;19.62;14.13;;;;;;;11.44;100.00;101699.69;5518298;32;32833;-87
2022/10/07 06:54:23;;;;;;;21.37;14.60;;;;;;;11.56;100.00;101696.66;5529525;32;33736;-87
2022/10/07 06:57:26;;;;;;;22.02;15.32;;;;;;;11.66;100.00;101697.22;5534971;32;34384;-88
2022/10/07 07:00:48;;;;;;;20.27;15.27;;;;;;;11.91;100.00;101696.38;5530022;32;33626;-88
2022/10/07 07:03:52;;;;;;;18.70;14.52;;;;;;;12.19;100.00;101692.81;5535516;32;34963;-87
2022/10/07 07:14:18;;;;;;;18.90;13.13;;;;;;;13.54;100.00;101691.31;5366833;30;20105;-88
2022/10/07 07:32:21;;;;;;;20.98;12.25;;;;;;;17.48;100.00;101680.09;4052363;30;20109;-88
2022/10/07 07:35:27;;;;;;;17.23;11.75;;;;;;;22.36;71.55;101680.34;5510099;32;34540;-88
2022/10/07 07:38:30;;;;;;;17.80;10.90;;;;;;;26.24;54.39;101679.41;5515010;32;34470;-89
2022/10/07 08:04:17;;;;;;;9.05;6.87;;;;;;;35.04;26.05;101669.28;4519423;30;20107;-90
2022/10/07 08:07:20;;;;;;;11.12;7.30;;;;;;;35.92;25.90;101658.31;5479390;32;32160;-89
2022/10/07 08:10:23;;;;;;;8.00;6.87;;;;;;;35.63;26.14;101654.97;5485462;32;33955;-89
2022/10/07 08:13:26;;;;;;;7.40;6.55;;;;;;;34.14;27.10;101665.53;5479865;32;33494;-89
2022/10/07 08:16:29;;;;;;;8.13;6.78;;;;;;;31.41;30.48;101651.75;5487312;32;34129;-89
2022/10/07 08:19:33;;;;;;;7.87;6.93;;;;;;;29.07;36.31;101654.47;5515031;26;34835;-88
2022/10/07 08:22:38;;;;;;;9.25;7.12;;;;;;;29.70;35.80;101654.88;5496562;32;35870;-88
2022/10/07 08:25:42;;;;;;;8.27;7.53;;;;;;;31.30;32.92;101649.44;5486214;32;33690;-89
2022/10/07 08:29:05;;;;;;;7.37;6.55;;;;;;;31.59;31.33;101642.34;5478764;32;34180;-88
2022/10/07 08:32:08;;;;;;;7.75;7.00;;;;;;;28.46;35.76;101642.69;5471479;32;33451;-88
2022/10/07 08:50:54;;;;;;;14.57;9.00;;;;;;;23.26;50.74;101631.66;5487258;32;20108;-87
2022/10/07 08:54:00;;;;;;;12.45;9.48;;;;;;;22.20;55.01;101629.38;5474171;32;32659;-86
2022/10/07 08:57:13;;;;;;;10.50;8.98;;;;;;;21.72;56.43;101623.16;5487981;32;34231;-87
2022/10/07 09:00:19;;;;;;;10.57;9.00;;;;;;;21.29;58.57;101619.19;5489185;32;33973;-86
2022/10/07 09:03:46;;;;;;;13.25;9.18;;;;;;;21.18;59.67;101620.03;5491132;32;33736;-86
2022/10/07 09:07:08;;;;;;;14.18;9.30;;;;;;;20.83;61.46;101618.09;5488725;32;34229;-87
2022/10/07 09:10:27;;;;;;;16.55;9.23;;;;;;;20.79;62.17;101619.28;5487167;32;33522;-86
2022/10/07 09:24:30;;;;;;;12.45;9.43;;;;;;;21.08;60.98;101597.41;3299673;26;20111;-89
2022/10/07 09:27:33;;;;;;;11.07;9.50;;;;;;;21.32;61.11;101591.97;5512816;26;33898;-89
2022/10/07 09:30:36;;;;;;;10.80;9.25;;;;;;;21.09;62.74;101596.41;5485424;32;33641;-88
2022/10/07 09:33:42;;;;;;;11.12;9.38;;;;;;;21.45;61.87;101591.03;5492876;32;34605;-88
2022/10/07 09:37:20;;;;;;;13.75;9.43;;;;;;;21.60;61.72;101584.44;5523873;26;34036;-88
2022/10/07 09:40:30;;;;;;;12.37;9.07;;;;;;;21.97;60.92;101574.47;5482527;32;32332;-87
2022/10/07 09:43:34;;;;;;;10.93;9.80;;;;;;;21.90;60.22;101577.66;5477714;32;32298;-90
2022/10/07 09:46:47;;;;;;;15.80;9.43;;;;;;;22.51;58.59;101567.44;5470689;32;32683;-92
2022/10/07 09:49:55;;;;;;;14.20;9.90;;;;;;;22.69;57.97;101569.63;5477661;32;32900;-88
2022/10/07 09:53:00;;;;;;;12.40;10.10;;;;;;;22.52;56.27;101550.25;5487521;32;34778;-89
2022/10/07 09:56:03;;;;;;;14.87;9.60;;;;;;;22.00;59.37;101548.06;5479421;32;34014;-89
2022/10/07 09:59:25;;;;;;;16.45;8.75;;;;;;;22.68;58.13;101541.72;5485572;32;34275;-88
2022/10/07 10:02:28;;;;;;;9.35;8.13;;;;;;;22.46;57.71;101539.91;5464560;32;33718;-86
2022/10/07 10:05:34;;;;;;;13.70;9.32;;;;;;;23.82;55.77;101538.44;5474151;32;34005;-87
2022/10/07 10:08:41;;;;;;;12.60;8.10;;;;;;;24.25;51.76;101526.62;5463686;32;34427;-87
2022/10/07 10:11:44;;;;;;;16.50;8.60;;;;;;;24.60;51.89;101528.00;5463395;32;35118;-87
2022/10/07 10:14:50;;;;;;;11.50;8.10;;;;;;;24.72;51.79;101523.28;5475416;32;32492;-87
2022/10/07 10:17:55;;;;;;;9.77;8.38;;;;;;;25.19;51.19;101521.75;5485819;32;32627;-87
2022/10/07 10:21:58;;;;;;;11.20;7.85;;;;;;;25.51;48.02;101523.25;5477215;32;34010;-88
2022/10/07 10:28:35;;;;;;;5.05;3.78;;;;;;;25.20;49.32;101516.16;5452006;32;33141;-91
2022/10/07 10:31:59;;;;;;;5.75;3.72;;;;;;;27.21;40.57;101512.97;5454512;32;33826;-88
2022/10/07 10:35:08;;;;;;;7.37;3.67;;;;;;;29.74;35.95;101508.59;5470028;32;34663;-87
2022/10/07 10:38:24;;;;;;;4.87;3.70;;;;;;;28.68;37.57;101503.03;5485557;32;34014;-87
2022/10/07 10:41:36;;;;;;;3.83;3.42;;;;;;;26.87;41.40;101500.06;5484980;32;33996;-86
2022/10/07 10:44:41;;;;;;;4.18;3.80;;;;;;;26.02;43.22;101493.03;5487735;32;32469;-87
2022/10/07 10:48:29;;;;;;;4.28;3.90;;;;;;;25.27;44.40;101489.28;5480262;32;34247;-87
2022/10/07 10:51:41;;;;;;;7.18;3.90;;;;;;;24.52;45.96;101488.00;5459283;32;33638;-87
2022/10/07 10:55:11;;;;;;;5.62;3.95;;;;;;;25.09;45.47;101481.88;5486851;32;34128;-87
2022/10/07 10:58:36;;;;;;;6.43;4.03;;;;;;;28.08;39.89;101473.91;5492491;32;35055;-91
2022/10/07 11:01:41;;;;;;;4.80;3.80;;;;;;;31.14;32.73;101464.94;5491279;32;34277;-88
2022/10/07 11:04:49;;;;;;;4.72;3.55;;;;;;;30.04;34.46;101456.84;5476925;32;33339;-87
2022/10/07 11:08:10;;;;;;;4.45;3.40;;;;;;;27.12;38.83;101456.72;5482156;32;32367;-87
2022/10/07 11:11:19;;;;;;;4.15;3.75;;;;;;;24.86;44.66;101449.66;5478972;32;33470;-87
2022/10/07 11:14:23;;;;;;;5.40;3.87;;;;;;;24.23;45.94;101440.03;5491188;32;34580;-87
2022/10/07 11:17:32;;;;;;;6.50;4.20;;;;;;;24.32;46.67;101438.31;5475805;32;33395;-87
2022/10/07 11:20:37;;;;;;;7.45;4.62;;;;;;;23.98;46.80;101427.84;5490787;32;33627;-87
2022/10/07 11:24:18;;;;;;;5.53;4.00;;;;;;;25.08;44.80;101423.16;5490684;32;34125;-87
2022/10/07 11:27:31;;;;;;;5.93;3.90;;;;;;;25.42;42.68;101419.94;5447893;27;34099;-88
2022/10/07 11:30:46;;;;;;;5.60;4.25;;;;;;;24.52;45.48;101412.06;5450441;32;33817;-88
2022/10/07 11:34:14;;;;;;;7.75;4.47;;;;;;;24.25;46.17;101416.34;5450755;32;33166;-87
2022/10/07 11:37:25;;;;;;;6.50;4.70;;;;;;;23.33;48.03;101400.09;5449742;32;34320;-88
2022/10/07 11:40:32;;;;;;;5.47;4.05;;;;;;;23.04;49.71;101395.38;5437960;32;33511;-86
2022/10/07 11:43:46;;;;;;;5.72;4.18;;;;;;;22.89;51.95;101384.88;5439855;32;33767;-86
2022/10/07 11:46:50;;;;;;;6.65;4.05;;;;;;;22.68;51.35;101384.88;5447494;32;33747;-87
2022/10/07 11:50:06;;;;;;;4.93;4.40;;;;;;;22.70;51.53;101382.03;5445164;32;33998;-87
2022/10/07 11:53:24;;;;;;;5.05;4.28;;;;;;;22.98;51.12;101377.81;5451278;32;33492;-88
2022/10/07 11:56:35;;;;;;;5.07;4.22;;;;;;;22.83;50.36;101377.28;5446671;32;34009;-86
2022/10/07 11:59:47;;;;;;;6.25;4.18;;;;;;;22.60;50.70;101368.47;5451501;32;34056;-87
2022/10/07 12:02:52;;;;;;;6.05;4.15;;;;;;;22.75;51.23;101358.19;5445236;32;34210;-87
2022/10/07 12:05:56;;;;;;;7.53;4.80;;;;;;;22.26;52.89;101358.63;5451274;32;33927;-87
2022/10/07 12:09:38;;;;;;;7.75;4.62;;;;;;;22.15;53.16;101356.84;5451484;32;33894;-87
2022/10/07 12:12:42;;;;;;;4.43;4.07;;;;;;;22.37;52.95;101346.91;5451993;32;34060;-87
2022/10/07 12:15:47;;;;;;;4.70;4.30;;;;;;;22.48;53.09;101346.00;5459078;32;35109;-88
2022/10/07 12:19:06;;;;;;;5.87;4.60;;;;;;;22.26;52.80;101342.41;5455890;32;34884;-88
2022/10/07 12:22:12;;;;;;;5.15;4.62;;;;;;;22.39;53.52;101326.03;5452103;32;33874;-87
2022/10/07 12:25:41;;;;;;;6.72;4.53;;;;;;;22.26;54.00;101328.03;5452155;32;34379;-88
2022/10/07 12:28:46;;;;;;;7.95;4.62;;;;;;;22.39;53.27;101325.16;5452080;32;34230;-88
2022/10/07 12:31:49;;;;;;;4.82;4.40;;;;;;;22.42;53.51;101312.25;5450401;32;34531;-88
2022/10/07 12:34:51;;;;;;;7.55;4.57;;;;;;;22.27;53.54;101321.66;5452042;32;34652;-88
2022/10/07 12:38:28;;;;;;;7.43;4.85;;;;;;;22.40;54.00;101308.81;5454644;32;33754;-87
2022/10/07 12:41:42;;;;;;;6.97;4.50;;;;;;;22.06;54.57;101309.84;5452064;32;32201;-87
2022/10/07 12:44:51;;;;;;;5.45;4.43;;;;;;;22.10;55.57;101302.31;5447002;32;33565;-87
2022/10/07 12:47:56;;;;;;;6.12;4.78;;;;;;;22.10;54.61;101302.31;5465810;32;33425;-87
2022/10/07 12:51:02;;;;;;;7.15;4.60;;;;;;;22.03;55.01;101295.72;5461341;32;33986;-88
2022/10/07 12:54:19;;;;;;;5.00;4.50;;;;;;;22.06;55.98;101295.47;5453473;32;34765;-89
2022/10/07 12:57:33;;;;;;;7.55;4.57;;;;;;;21.95;55.45;101296.38;5454526;32;34132;-86
2022/10/07 13:00:44;;;;;;;5.75;4.53;;;;;;;21.82;56.56;101285.72;5454236;32;34799;-85
2022/10/07 13:04:22;;;;;;;8.55;4.57;;;;;;;21.86;54.66;101284.50;5453550;32;35400;-90
2022/10/07 13:08:00;;;;;;;6.05;4.40;;;;;;;22.08;54.82;101285.41;5460261;32;34347;-87
2022/10/07 13:11:50;;;;;;;7.03;4.53;;;;;;;22.03;54.21;101279.53;5453100;32;35052;-88
2022/10/07 13:15:25;;;;;;;5.50;4.20;;;;;;;21.86;54.70;101271.00;5466022;32;32366;-87
2022/10/07 13:18:40;;;;;;;4.90;4.40;;;;;;;22.02;55.11;101269.72;5455312;32;33977;-87
2022/10/07 13:22:11;;;;;;;6.93;4.35;;;;;;;22.04;56.17;101265.91;5468330;32;34722;-90
2022/10/07 13:25:18;;;;;;;6.87;4.30;;;;;;;21.96;55.18;101259.44;5449222;32;34022;-86
2022/10/07 13:36:11;;;;;;;5.43;4.68;;;;;;;21.71;56.76;101246.13;2471177;26;20084;-88
2022/10/07 13:39:14;;;;;;;4.43;4.03;;;;;;;21.90;56.80;101245.44;5507256;32;32416;-88
2022/10/07 13:42:17;;;;;;;5.90;4.20;;;;;;;21.65;56.00;101238.50;5517461;32;34079;-88
2022/10/07 13:45:23;;;;;;;7.18;4.43;;;;;;;21.77;55.06;101232.12;5512804;32;35127;-88
2022/10/07 13:48:35;;;;;;;6.22;4.28;;;;;;;21.77;54.80;101240.22;5500381;32;34849;-88
2022/10/07 13:51:41;;;;;;;5.07;4.10;;;;;;;21.84;54.52;101237.88;5505682;32;35075;-92
2022/10/07 13:54:50;;;;;;;5.07;4.05;;;;;;;21.91;54.44;101236.34;5492426;32;35144;-91
2022/10/07 13:57:59;;;;;;;5.97;4.05;;;;;;;21.93;54.94;101228.12;5478398;32;33887;-89
2022/10/07 14:01:04;;;;;;;4.82;4.30;;;;;;;21.74;56.09;101226.97;5478504;32;32522;-89
2022/10/07 14:04:13;;;;;;;8.82;4.40;;;;;;;21.65;56.03;101219.59;5485534;32;32974;-89
2022/10/07 14:07:19;;;;;;;7.03;4.55;;;;;;;21.63;56.46;101218.91;5503017;32;34042;-88
2022/10/07 14:10:25;;;;;;;5.28;4.50;;;;;;;21.51;55.81;101209.97;5502393;32;32629;-88
2022/10/07 14:13:29;;;;;;;5.93;4.32;;;;;;;21.52;56.32;101199.03;5511671;32;33899;-89
2022/10/07 14:16:34;;;;;;;5.40;4.18;;;;;;;21.44;55.93;101201.53;5511174;32;33912;-89
2022/10/07 14:19:40;;;;;;;5.20;4.25;;;;;;;21.22;56.51;101192.50;5509678;32;33791;-89
2022/10/07 14:22:49;;;;;;;6.15;4.40;;;;;;;21.24;57.64;101198.66;5511749;32;35077;-88
2022/10/07 14:26:00;;;;;;;6.85;4.57;;;;;;;21.27;58.51;101194.84;5551634;26;32832;-88
2022/10/07 14:29:34;;;;;;;5.45;4.25;;;;;;;21.21;57.94;101193.50;5498820;32;31517;-89
2022/10/07 14:36:34;;;;;;;6.60;4.53;;;;;;;20.95;59.20;101196.47;5488723;32;32796;-87
2022/10/07 14:39:48;;;;;;;7.35;4.62;;;;;;;20.94;59.47;101197.47;5487935;32;32412;-88
2022/10/07 14:42:52;;;;;;;7.55;4.53;;;;;;;20.80;60.41;101190.47;5503690;32;34059;-87
2022/10/07 14:45:56;;;;;;;8.27;4.53;;;;;;;20.65;61.01;101192.53;5521671;27;34417;-89
2022/10/07 14:48:59;;;;;;;7.18;4.43;;;;;;;20.65;60.83;101192.53;5491875;32;33763;-88
2022/10/07 14:52:05;;;;;;;5.97;4.45;;;;;;;20.46;61.93;101185.91;5493104;32;35261;-88
2022/10/07 14:58:45;;;;;;;6.12;4.80;;;;;;;20.19;62.47;101187.13;4909784;30;20097;-88
2022/10/07 15:01:48;;;;;;;5.50;4.75;;;;;;;19.91;62.90;101174.88;5553498;26;34023;-88
2022/10/07 15:04:51;;;;;;;8.02;4.65;;;;;;;19.87;63.73;101171.56;5553716;26;33924;-88
2022/10/07 15:07:53;;;;;;;6.20;4.80;;;;;;;19.90;63.34;101168.66;5492387;32;34605;-88
2022/10/07 15:10:56;;;;;;;7.35;5.05;;;;;;;19.78;64.61;101170.44;5549585;26;34033;-88
2022/10/07 15:13:59;;;;;;;5.97;4.60;;;;;;;19.72;64.99;101165.53;5550218;26;33810;-88
2022/10/07 15:17:02;;;;;;;4.93;4.40;;;;;;;19.68;66.02;101164.06;5540727;26;34201;-88
2022/10/07 15:20:06;;;;;;;12.27;5.55;;;;;;;19.60;67.07;101161.06;5531825;26;33922;-88
2022/10/07 15:23:09;;;;;;;10.93;4.70;;;;;;;19.46;68.22;101167.53;5497124;32;34112;-88
2022/10/07 15:26:13;;;;;;;6.03;5.12;;;;;;;19.46;68.71;101162.13;5510716;32;34144;-88
2022/10/07 15:29:15;;;;;;;7.75;5.35;;;;;;;19.36;69.73;101167.34;5510731;32;34146;-88
2022/10/07 15:32:19;;;;;;;10.95;6.20;;;;;;;19.23;70.95;101168.25;5499276;32;33147;-88
2022/10/07 15:35:25;;;;;;;6.62;5.40;;;;;;;19.14;71.52;101166.25;5511923;32;34738;-88
2022/10/07 15:38:29;;;;;;;9.13;5.60;;;;;;;19.03;74.11;101160.78;5521854;32;35037;-89
2022/10/07 15:41:37;;;;;;;8.65;5.47;;;;;;;18.80;74.51;101158.78;5501536;27;33417;-88
